Impacts TAF Board INFO
FOR SITUATIONAL AWARENESS. NOT TO BE USED FOR FLIGHT PLANNING PURPOSES.
IDs:

KLAX - Los Angeles Intl, CA, US

Issued at 1739 UTC 17 Oct 2017
Updated at 1839 UTC 17 Oct 2017
Potential Impact None Slight Moderate High
Time1753Z 17/19Z 17/20Z 17/21Z 17/22Z 17/23Z 18/00Z 18/01Z 18/02Z 18/03Z 18/04Z 18/05Z 18/06Z 18/07Z>>
Type OBS PRVL PRVL PRVL PRVL PRVL PRVL PRVL PRVL PRVL PRVL PRVL PRVL PRVL
VIS 10 >6 >6 >6 >6 >6 >6 >6 >6 >6 >6 >6 >6 >6
CIG -- 200 200 200 200 200 200 200 200 150 150 150 150 150
Cover SCT BKN BKN BKN BKN BKN BKN BKN BKN BKN BKN BKN BKN BKN
FltCat VFR VFR VFR VFR VFR VFR VFR VFR VFR VFR VFR VFR VFR VFR
WX -- -- -- -- -- -- -- -- -- -- -- -- -- --
WDir 210 280 270 270 270 270 270 270 270 260 260 260 260 260
WSpd 3 6 13 13 13 13 13 13 13 5 5 5 5 5
WGst -- -- -- -- -- -- -- -- -- -- -- -- -- --

Raw TAF
KLAX 171739Z 1718/1824 31003KT P6SM FEW020 SCT150
  FM171900 28006KT P6SM BKN200
  FM172000 27013KT P6SM BKN200
  FM180300 26005KT P6SM BKN150
  FM181300 04003KT P6SM FEW020
  FM181500 06003KT 5SM HZ FEW018
  FM182000 27013KT P6SM SCT250


Raw METAR
KLAX 171753Z 21003KT 10SM FEW022 FEW060 SCT160 SCT200 29/03 A3000 RMK AO2 SLP158 T02940033 10300 20194 50002
KLAX 171653Z 31003KT 10SM FEW020 FEW060 SCT150 SCT200 27/10 A3001 RMK AO2 SLP161 FU FEW060 T02670100
KLAX 171553Z 31005KT 10SM FEW060 SCT160 BKN200 25/08 A3001 RMK AO2 SLP161 FU FEW060 T02500083

METAR Board
Radar Display
Forecast Discussion

FOR SITUATIONAL AWARENESS. NOT TO BE USED FOR FLIGHT PLANNING PURPOSES.